sensor_id;sensor_type;location;lat;lon;timestamp;P1;durP1;ratioP1;P2;durP2;ratioP2
76964;SDS011;65903;51.452;7.198;2023-07-02T00:00:51;6.30;;;3.80;;
76964;SDS011;65903;51.452;7.198;2023-07-02T00:01:52;5.07;;;3.55;;
76964;SDS011;65903;51.452;7.198;2023-07-02T00:02:53;5.13;;;3.55;;
76964;SDS011;65903;51.452;7.198;2023-07-02T00:03:54;4.07;;;3.40;;
76964;SDS011;65903;51.452;7.198;2023-07-02T00:04:55;4.10;;;3.20;;
76964;SDS011;65903;51.452;7.198;2023-07-02T00:05:55;5.65;;;3.50;;
76964;SDS011;65903;51.452;7.198;2023-07-02T00:06:56;4.53;;;3.10;;
76964;SDS011;65903;51.452;7.198;2023-07-02T00:07:57;5.38;;;3.63;;
76964;SDS011;65903;51.452;7.198;2023-07-02T00:08:57;4.43;;;3.20;;
76964;SDS011;65903;51.452;7.198;2023-07-02T00:09:59;5.22;;;3.78;;
76964;SDS011;65903;51.452;7.198;2023-07-02T00:10:59;7.60;;;3.45;;
76964;SDS011;65903;51.452;7.198;2023-07-02T00:12:00;6.95;;;3.88;;
76964;SDS011;65903;51.452;7.198;2023-07-02T00:13:01;5.65;;;3.55;;
76964;SDS011;65903;51.452;7.198;2023-07-02T00:14:02;6.90;;;3.65;;
76964;SDS011;65903;51.452;7.198;2023-07-02T00:15:03;6.85;;;3.40;;
76964;SDS011;65903;51.452;7.198;2023-07-02T00:16:05;5.88;;;3.80;;
76964;SDS011;65903;51.452;7.198;2023-07-02T00:17:06;3.88;;;3.17;;
76964;SDS011;65903;51.452;7.198;2023-07-02T00:18:07;5.35;;;3.63;;
76964;SDS011;65903;51.452;7.198;2023-07-02T00:19:07;5.70;;;3.30;;
76964;SDS011;65903;51.452;7.198;2023-07-02T00:20:08;6.70;;;3.78;;
76964;SDS011;65903;51.452;7.198;2023-07-02T00:21:17;7.15;;;3.35;;
76964;SDS011;65903;51.452;7.198;2023-07-02T00:22:18;5.35;;;3.40;;
76964;SDS011;65903;51.452;7.198;2023-07-02T00:23:18;5.28;;;3.88;;
76964;SDS011;65903;51.452;7.198;2023-07-02T00:24:20;6.05;;;3.72;;
76964;SDS011;65903;51.452;7.198;2023-07-02T00:25:21;7.53;;;3.47;;
76964;SDS011;65903;51.452;7.198;2023-07-02T00:26:25;6.18;;;3.17;;
76964;SDS011;65903;51.452;7.198;2023-07-02T00:27:26;7.15;;;3.72;;
76964;SDS011;65903;51.452;7.198;2023-07-02T00:28:27;5.80;;;3.97;;
76964;SDS011;65903;51.452;7.198;2023-07-02T00:29:28;6.80;;;3.53;;
76964;SDS011;65903;51.452;7.198;2023-07-02T00:30:29;5.97;;;3.78;;
76964;SDS011;65903;51.452;7.198;2023-07-02T00:31:30;5.60;;;3.17;;
76964;SDS011;65903;51.452;7.198;2023-07-02T00:32:31;7.55;;;3.67;;
76964;SDS011;65903;51.452;7.198;2023-07-02T00:33:32;5.75;;;3.33;;
76964;SDS011;65903;51.452;7.198;2023-07-02T00:34:32;5.72;;;3.33;;
76964;SDS011;65903;51.452;7.198;2023-07-02T00:35:33;7.75;;;3.75;;
76964;SDS011;65903;51.452;7.198;2023-07-02T00:36:34;7.15;;;3.50;;
76964;SDS011;65903;51.452;7.198;2023-07-02T00:37:35;5.90;;;3.50;;
76964;SDS011;65903;51.452;7.198;2023-07-02T00:38:36;7.90;;;3.35;;
76964;SDS011;65903;51.452;7.198;2023-07-02T00:39:37;7.55;;;3.83;;
76964;SDS011;65903;51.452;7.198;2023-07-02T00:40:38;7.40;;;4.05;;
76964;SDS011;65903;51.452;7.198;2023-07-02T00:41:39;4.93;;;3.20;;
76964;SDS011;65903;51.452;7.198;2023-07-02T00:42:42;5.32;;;3.75;;
76964;SDS011;65903;51.452;7.198;2023-07-02T00:43:43;5.95;;;3.80;;
76964;SDS011;65903;51.452;7.198;2023-07-02T00:44:44;5.70;;;3.83;;
76964;SDS011;65903;51.452;7.198;2023-07-02T00:45:46;7.05;;;3.88;;
76964;SDS011;65903;51.452;7.198;2023-07-02T00:46:46;6.18;;;3.70;;
76964;SDS011;65903;51.452;7.198;2023-07-02T00:47:47;6.88;;;3.85;;
76964;SDS011;65903;51.452;7.198;2023-07-02T00:48:48;4.30;;;3.58;;
76964;SDS011;65903;51.452;7.198;2023-07-02T00:49:50;8.98;;;3.67;;
76964;SDS011;65903;51.452;7.198;2023-07-02T00:50:51;11.75;;;3.90;;
76964;SDS011;65903;51.452;7.198;2023-07-02T00:51:52;6.18;;;3.70;;
76964;SDS011;65903;51.452;7.198;2023-07-02T00:52:53;5.95;;;3.92;;
76964;SDS011;65903;51.452;7.198;2023-07-02T00:53:55;5.82;;;3.50;;
76964;SDS011;65903;51.452;7.198;2023-07-02T00:54:57;7.63;;;3.88;;
76964;SDS011;65903;51.452;7.198;2023-07-02T00:55:58;8.60;;;3.75;;
76964;SDS011;65903;51.452;7.198;2023-07-02T00:56:58;9.77;;;3.80;;
76964;SDS011;65903;51.452;7.198;2023-07-02T00:58:03;5.97;;;3.80;;
76964;SDS011;65903;51.452;7.198;2023-07-02T00:59:03;6.05;;;3.78;;
76964;SDS011;65903;51.452;7.198;2023-07-02T01:00:05;6.43;;;3.55;;
76964;SDS011;65903;51.452;7.198;2023-07-02T01:01:06;7.75;;;4.15;;
76964;SDS011;65903;51.452;7.198;2023-07-02T01:02:07;8.38;;;3.95;;
76964;SDS011;65903;51.452;7.198;2023-07-02T01:03:08;6.03;;;4.07;;
76964;SDS011;65903;51.452;7.198;2023-07-02T01:04:08;6.18;;;4.47;;
76964;SDS011;65903;51.452;7.198;2023-07-02T01:05:15;7.22;;;3.75;;
76964;SDS011;65903;51.452;7.198;2023-07-02T01:06:16;6.28;;;3.90;;
76964;SDS011;65903;51.452;7.198;2023-07-02T01:07:16;6.93;;;3.88;;
76964;SDS011;65903;51.452;7.198;2023-07-02T01:08:17;6.30;;;3.80;;
76964;SDS011;65903;51.452;7.198;2023-07-02T01:09:17;5.72;;;3.60;;
76964;SDS011;65903;51.452;7.198;2023-07-02T01:10:18;6.68;;;4.05;;
76964;SDS011;65903;51.452;7.198;2023-07-02T01:11:19;8.98;;;4.28;;
76964;SDS011;65903;51.452;7.198;2023-07-02T01:12:22;6.85;;;3.85;;
76964;SDS011;65903;51.452;7.198;2023-07-02T01:13:22;7.40;;;3.95;;
76964;SDS011;65903;51.452;7.198;2023-07-02T01:14:30;6.55;;;3.97;;
76964;SDS011;65903;51.452;7.198;2023-07-02T01:15:32;6.30;;;3.97;;
76964;SDS011;65903;51.452;7.198;2023-07-02T01:16:33;8.57;;;3.60;;
76964;SDS011;65903;51.452;7.198;2023-07-02T01:17:35;5.10;;;3.80;;
76964;SDS011;65903;51.452;7.198;2023-07-02T01:18:40;5.65;;;3.83;;
76964;SDS011;65903;51.452;7.198;2023-07-02T01:19:45;8.55;;;4.10;;
76964;SDS011;65903;51.452;7.198;2023-07-02T01:20:45;6.43;;;3.90;;
76964;SDS011;65903;51.452;7.198;2023-07-02T01:21:47;7.32;;;4.13;;
76964;SDS011;65903;51.452;7.198;2023-07-02T01:22:49;8.02;;;4.20;;
76964;SDS011;65903;51.452;7.198;2023-07-02T01:23:52;8.60;;;4.32;;
76964;SDS011;65903;51.452;7.198;2023-07-02T01:24:53;8.13;;;4.28;;
76964;SDS011;65903;51.452;7.198;2023-07-02T01:25:54;8.48;;;4.25;;
76964;SDS011;65903;51.452;7.198;2023-07-02T01:26:55;7.95;;;4.32;;
76964;SDS011;65903;51.452;7.198;2023-07-02T01:27:56;6.85;;;3.80;;
76964;SDS011;65903;51.452;7.198;2023-07-02T01:28:58;7.20;;;4.20;;
76964;SDS011;65903;51.452;7.198;2023-07-02T01:29:59;8.60;;;4.45;;
76964;SDS011;65903;51.452;7.198;2023-07-02T01:31:00;6.53;;;4.20;;
76964;SDS011;65903;51.452;7.198;2023-07-02T01:32:01;6.18;;;4.05;;
76964;SDS011;65903;51.452;7.198;2023-07-02T01:33:02;6.10;;;3.95;;
76964;SDS011;65903;51.452;7.198;2023-07-02T01:34:03;7.05;;;4.22;;
76964;SDS011;65903;51.452;7.198;2023-07-02T01:35:05;8.50;;;4.07;;
76964;SDS011;65903;51.452;7.198;2023-07-02T01:36:06;5.95;;;4.15;;
76964;SDS011;65903;51.452;7.198;2023-07-02T01:37:07;8.70;;;4.03;;
76964;SDS011;65903;51.452;7.198;2023-07-02T01:38:09;10.50;;;4.63;;
76964;SDS011;65903;51.452;7.198;2023-07-02T01:39:09;7.50;;;3.88;;
76964;SDS011;65903;51.452;7.198;2023-07-02T01:40:10;8.93;;;4.30;;
76964;SDS011;65903;51.452;7.198;2023-07-02T01:41:11;7.78;;;4.63;;
76964;SDS011;65903;51.452;7.198;2023-07-02T01:42:12;8.93;;;4.32;;
76964;SDS011;65903;51.452;7.198;2023-07-02T01:43:15;8.57;;;4.32;;
76964;SDS011;65903;51.452;7.198;2023-07-02T01:44:16;10.43;;;4.28;;
76964;SDS011;65903;51.452;7.198;2023-07-02T01:45:17;8.05;;;3.90;;
76964;SDS011;65903;51.452;7.198;2023-07-02T01:46:17;7.60;;;4.03;;
76964;SDS011;65903;51.452;7.198;2023-07-02T01:47:18;7.78;;;4.47;;
76964;SDS011;65903;51.452;7.198;2023-07-02T01:48:20;9.23;;;4.22;;
76964;SDS011;65903;51.452;7.198;2023-07-02T01:49:21;8.45;;;4.00;;
76964;SDS011;65903;51.452;7.198;2023-07-02T01:50:22;9.13;;;4.55;;
76964;SDS011;65903;51.452;7.198;2023-07-02T01:51:23;7.32;;;4.40;;
76964;SDS011;65903;51.452;7.198;2023-07-02T01:52:23;7.63;;;3.90;;
76964;SDS011;65903;51.452;7.198;2023-07-02T01:53:24;6.63;;;4.00;;
76964;SDS011;65903;51.452;7.198;2023-07-02T01:54:26;7.95;;;4.00;;
76964;SDS011;65903;51.452;7.198;2023-07-02T01:55:29;8.70;;;4.43;;
76964;SDS011;65903;51.452;7.198;2023-07-02T01:56:30;7.72;;;4.03;;
76964;SDS011;65903;51.452;7.198;2023-07-02T01:57:31;6.78;;;4.20;;
76964;SDS011;65903;51.452;7.198;2023-07-02T01:58:32;5.70;;;4.00;;
76964;SDS011;65903;51.452;7.198;2023-07-02T01:59:33;6.65;;;4.10;;
76964;SDS011;65903;51.452;7.198;2023-07-02T02:00:35;8.90;;;4.47;;
76964;SDS011;65903;51.452;7.198;2023-07-02T02:01:37;8.20;;;4.43;;
76964;SDS011;65903;51.452;7.198;2023-07-02T02:02:42;9.00;;;4.15;;
76964;SDS011;65903;51.452;7.198;2023-07-02T02:03:43;8.23;;;4.18;;
76964;SDS011;65903;51.452;7.198;2023-07-02T02:04:44;11.23;;;4.32;;
76964;SDS011;65903;51.452;7.198;2023-07-02T02:05:45;7.65;;;4.20;;
76964;SDS011;65903;51.452;7.198;2023-07-02T02:06:45;11.00;;;4.82;;
76964;SDS011;65903;51.452;7.198;2023-07-02T02:07:46;8.35;;;4.20;;
76964;SDS011;65903;51.452;7.198;2023-07-02T02:08:47;9.40;;;5.03;;
76964;SDS011;65903;51.452;7.198;2023-07-02T02:09:49;9.07;;;4.43;;
76964;SDS011;65903;51.452;7.198;2023-07-02T02:10:49;10.52;;;4.53;;
76964;SDS011;65903;51.452;7.198;2023-07-02T02:11:50;6.38;;;3.90;;
76964;SDS011;65903;51.452;7.198;2023-07-02T02:12:52;9.70;;;4.75;;
76964;SDS011;65903;51.452;7.198;2023-07-02T02:13:53;7.85;;;4.60;;
76964;SDS011;65903;51.452;7.198;2023-07-02T02:14:54;9.63;;;3.95;;
76964;SDS011;65903;51.452;7.198;2023-07-02T02:15:54;9.98;;;4.43;;
76964;SDS011;65903;51.452;7.198;2023-07-02T02:16:56;12.52;;;4.85;;
76964;SDS011;65903;51.452;7.198;2023-07-02T02:17:57;11.82;;;4.63;;
76964;SDS011;65903;51.452;7.198;2023-07-02T02:18:57;9.32;;;4.70;;
76964;SDS011;65903;51.452;7.198;2023-07-02T02:19:58;9.45;;;5.47;;
76964;SDS011;65903;51.452;7.198;2023-07-02T02:20:59;10.35;;;4.68;;
76964;SDS011;65903;51.452;7.198;2023-07-02T02:22:00;12.65;;;4.70;;
76964;SDS011;65903;51.452;7.198;2023-07-02T02:23:01;11.07;;;4.53;;
76964;SDS011;65903;51.452;7.198;2023-07-02T02:24:02;11.88;;;5.65;;
76964;SDS011;65903;51.452;7.198;2023-07-02T02:25:07;10.00;;;4.30;;
76964;SDS011;65903;51.452;7.198;2023-07-02T02:26:08;9.75;;;4.40;;
76964;SDS011;65903;51.452;7.198;2023-07-02T02:27:09;11.13;;;5.20;;
76964;SDS011;65903;51.452;7.198;2023-07-02T02:28:10;8.15;;;4.25;;
76964;SDS011;65903;51.452;7.198;2023-07-02T02:29:10;8.68;;;5.20;;
76964;SDS011;65903;51.452;7.198;2023-07-02T02:30:11;9.38;;;4.93;;
76964;SDS011;65903;51.452;7.198;2023-07-02T02:31:11;10.13;;;4.72;;
76964;SDS011;65903;51.452;7.198;2023-07-02T02:32:12;8.15;;;4.65;;
76964;SDS011;65903;51.452;7.198;2023-07-02T02:33:13;10.07;;;4.60;;
76964;SDS011;65903;51.452;7.198;2023-07-02T02:34:13;10.18;;;4.43;;
76964;SDS011;65903;51.452;7.198;2023-07-02T02:35:14;8.77;;;4.93;;
76964;SDS011;65903;51.452;7.198;2023-07-02T02:36:15;8.60;;;4.57;;
76964;SDS011;65903;51.452;7.198;2023-07-02T02:37:18;12.27;;;5.40;;
76964;SDS011;65903;51.452;7.198;2023-07-02T02:38:19;11.07;;;5.00;;
76964;SDS011;65903;51.452;7.198;2023-07-02T02:39:19;11.38;;;5.93;;
76964;SDS011;65903;51.452;7.198;2023-07-02T02:40:20;12.30;;;5.00;;
76964;SDS011;65903;51.452;7.198;2023-07-02T02:41:21;7.93;;;4.93;;
76964;SDS011;65903;51.452;7.198;2023-07-02T02:42:22;10.73;;;5.45;;
76964;SDS011;65903;51.452;7.198;2023-07-02T02:43:22;14.40;;;5.63;;
76964;SDS011;65903;51.452;7.198;2023-07-02T02:44:23;10.13;;;5.30;;
76964;SDS011;65903;51.452;7.198;2023-07-02T02:45:24;11.68;;;6.10;;
76964;SDS011;65903;51.452;7.198;2023-07-02T02:46:25;11.88;;;5.40;;
76964;SDS011;65903;51.452;7.198;2023-07-02T02:47:25;13.88;;;5.68;;
76964;SDS011;65903;51.452;7.198;2023-07-02T02:48:26;12.93;;;5.75;;
76964;SDS011;65903;51.452;7.198;2023-07-02T02:49:27;10.50;;;6.00;;
76964;SDS011;65903;51.452;7.198;2023-07-02T02:50:27;10.10;;;5.43;;
76964;SDS011;65903;51.452;7.198;2023-07-02T02:51:28;11.70;;;6.32;;
76964;SDS011;65903;51.452;7.198;2023-07-02T02:52:29;11.45;;;5.50;;
76964;SDS011;65903;51.452;7.198;2023-07-02T02:53:30;12.80;;;6.18;;
76964;SDS011;65903;51.452;7.198;2023-07-02T02:54:30;11.65;;;5.40;;
76964;SDS011;65903;51.452;7.198;2023-07-02T02:55:31;10.57;;;5.68;;
76964;SDS011;65903;51.452;7.198;2023-07-02T02:56:32;12.15;;;5.55;;
76964;SDS011;65903;51.452;7.198;2023-07-02T02:57:33;13.38;;;6.32;;
76964;SDS011;65903;51.452;7.198;2023-07-02T02:58:34;12.55;;;6.10;;
76964;SDS011;65903;51.452;7.198;2023-07-02T02:59:35;13.85;;;6.22;;
76964;SDS011;65903;51.452;7.198;2023-07-02T03:00:36;14.85;;;6.32;;
76964;SDS011;65903;51.452;7.198;2023-07-02T03:01:36;11.40;;;5.60;;
76964;SDS011;65903;51.452;7.198;2023-07-02T03:02:38;10.95;;;6.28;;
76964;SDS011;65903;51.452;7.198;2023-07-02T03:03:39;12.88;;;5.97;;
76964;SDS011;65903;51.452;7.198;2023-07-02T03:04:40;10.18;;;5.65;;
76964;SDS011;65903;51.452;7.198;2023-07-02T03:05:41;11.43;;;6.20;;
76964;SDS011;65903;51.452;7.198;2023-07-02T03:06:41;13.02;;;6.82;;
76964;SDS011;65903;51.452;7.198;2023-07-02T03:07:42;12.70;;;6.10;;
76964;SDS011;65903;51.452;7.198;2023-07-02T03:08:43;15.70;;;6.75;;
76964;SDS011;65903;51.452;7.198;2023-07-02T03:09:43;12.95;;;6.00;;
76964;SDS011;65903;51.452;7.198;2023-07-02T03:10:44;13.45;;;6.40;;
76964;SDS011;65903;51.452;7.198;2023-07-02T03:11:46;15.75;;;7.30;;
76964;SDS011;65903;51.452;7.198;2023-07-02T03:12:47;16.50;;;6.18;;
76964;SDS011;65903;51.452;7.198;2023-07-02T03:13:48;13.60;;;7.15;;
76964;SDS011;65903;51.452;7.198;2023-07-02T03:14:49;16.48;;;6.97;;
76964;SDS011;65903;51.452;7.198;2023-07-02T03:15:53;15.10;;;7.10;;
76964;SDS011;65903;51.452;7.198;2023-07-02T03:16:54;13.50;;;6.47;;
76964;SDS011;65903;51.452;7.198;2023-07-02T03:17:55;13.18;;;6.28;;
76964;SDS011;65903;51.452;7.198;2023-07-02T03:18:56;14.40;;;6.93;;
76964;SDS011;65903;51.452;7.198;2023-07-02T03:19:57;11.98;;;6.65;;
76964;SDS011;65903;51.452;7.198;2023-07-02T03:20:58;14.30;;;7.43;;
76964;SDS011;65903;51.452;7.198;2023-07-02T03:21:59;17.48;;;7.25;;
76964;SDS011;65903;51.452;7.198;2023-07-02T03:23:00;11.70;;;6.72;;
76964;SDS011;65903;51.452;7.198;2023-07-02T03:24:03;18.17;;;7.07;;
76964;SDS011;65903;51.452;7.198;2023-07-02T03:25:04;12.77;;;6.40;;
76964;SDS011;65903;51.452;7.198;2023-07-02T03:26:04;14.80;;;6.43;;
76964;SDS011;65903;51.452;7.198;2023-07-02T03:27:05;14.38;;;6.90;;
76964;SDS011;65903;51.452;7.198;2023-07-02T03:28:06;12.88;;;6.65;;
76964;SDS011;65903;51.452;7.198;2023-07-02T03:29:07;15.77;;;7.40;;
76964;SDS011;65903;51.452;7.198;2023-07-02T03:30:07;15.60;;;7.60;;
76964;SDS011;65903;51.452;7.198;2023-07-02T03:31:08;15.82;;;7.45;;
76964;SDS011;65903;51.452;7.198;2023-07-02T03:32:09;17.00;;;7.57;;
76964;SDS011;65903;51.452;7.198;2023-07-02T03:33:10;15.07;;;7.85;;
76964;SDS011;65903;51.452;7.198;2023-07-02T03:34:11;16.30;;;7.57;;
76964;SDS011;65903;51.452;7.198;2023-07-02T03:35:12;15.32;;;7.72;;
76964;SDS011;65903;51.452;7.198;2023-07-02T03:36:12;18.40;;;8.48;;
76964;SDS011;65903;51.452;7.198;2023-07-02T03:37:13;19.55;;;7.45;;
76964;SDS011;65903;51.452;7.198;2023-07-02T03:38:13;16.58;;;7.15;;
76964;SDS011;65903;51.452;7.198;2023-07-02T03:39:15;15.85;;;7.13;;
76964;SDS011;65903;51.452;7.198;2023-07-02T03:40:16;14.77;;;7.47;;
76964;SDS011;65903;51.452;7.198;2023-07-02T03:41:17;14.52;;;7.50;;
76964;SDS011;65903;51.452;7.198;2023-07-02T03:42:18;13.50;;;7.97;;
76964;SDS011;65903;51.452;7.198;2023-07-02T03:43:19;18.17;;;7.63;;
76964;SDS011;65903;51.452;7.198;2023-07-02T03:44:20;19.42;;;8.23;;
76964;SDS011;65903;51.452;7.198;2023-07-02T03:45:20;15.93;;;7.68;;
76964;SDS011;65903;51.452;7.198;2023-07-02T03:46:21;16.13;;;7.22;;
76964;SDS011;65903;51.452;7.198;2023-07-02T03:47:22;14.98;;;7.38;;
76964;SDS011;65903;51.452;7.198;2023-07-02T03:48:23;14.18;;;7.07;;
76964;SDS011;65903;51.452;7.198;2023-07-02T03:49:24;13.48;;;7.45;;
76964;SDS011;65903;51.452;7.198;2023-07-02T03:50:25;15.25;;;6.85;;
76964;SDS011;65903;51.452;7.198;2023-07-02T03:51:25;15.40;;;7.50;;
76964;SDS011;65903;51.452;7.198;2023-07-02T03:52:26;14.88;;;8.00;;
76964;SDS011;65903;51.452;7.198;2023-07-02T03:53:26;16.30;;;7.75;;
76964;SDS011;65903;51.452;7.198;2023-07-02T03:54:27;15.48;;;8.68;;
76964;SDS011;65903;51.452;7.198;2023-07-02T03:55:28;16.00;;;7.10;;
76964;SDS011;65903;51.452;7.198;2023-07-02T03:56:29;16.05;;;8.15;;
76964;SDS011;65903;51.452;7.198;2023-07-02T03:57:30;17.65;;;7.97;;
76964;SDS011;65903;51.452;7.198;2023-07-02T03:58:30;14.65;;;7.72;;
76964;SDS011;65903;51.452;7.198;2023-07-02T03:59:31;16.10;;;7.53;;
76964;SDS011;65903;51.452;7.198;2023-07-02T04:00:32;16.17;;;7.90;;
76964;SDS011;65903;51.452;7.198;2023-07-02T04:01:33;15.43;;;7.57;;
76964;SDS011;65903;51.452;7.198;2023-07-02T04:02:34;17.58;;;8.10;;
76964;SDS011;65903;51.452;7.198;2023-07-02T04:03:35;20.83;;;8.82;;
76964;SDS011;65903;51.452;7.198;2023-07-02T04:04:36;16.33;;;8.40;;
76964;SDS011;65903;51.452;7.198;2023-07-02T04:05:37;13.98;;;7.90;;
76964;SDS011;65903;51.452;7.198;2023-07-02T04:06:39;16.70;;;7.90;;
76964;SDS011;65903;51.452;7.198;2023-07-02T04:07:39;15.35;;;8.32;;
76964;SDS011;65903;51.452;7.198;2023-07-02T04:08:40;20.73;;;9.45;;
76964;SDS011;65903;51.452;7.198;2023-07-02T04:09:40;16.02;;;8.10;;
76964;SDS011;65903;51.452;7.198;2023-07-02T04:10:41;18.23;;;9.23;;
76964;SDS011;65903;51.452;7.198;2023-07-02T04:11:41;13.68;;;7.38;;
76964;SDS011;65903;51.452;7.198;2023-07-02T04:12:42;20.60;;;8.55;;
76964;SDS011;65903;51.452;7.198;2023-07-02T04:13:42;17.20;;;7.65;;
76964;SDS011;65903;51.452;7.198;2023-07-02T04:14:43;19.63;;;8.35;;
76964;SDS011;65903;51.452;7.198;2023-07-02T04:15:43;19.83;;;8.70;;
76964;SDS011;65903;51.452;7.198;2023-07-02T04:16:44;19.48;;;8.63;;
76964;SDS011;65903;51.452;7.198;2023-07-02T04:17:45;17.08;;;7.97;;
76964;SDS011;65903;51.452;7.198;2023-07-02T04:18:46;18.83;;;8.02;;
76964;SDS011;65903;51.452;7.198;2023-07-02T04:19:46;20.45;;;9.07;;
76964;SDS011;65903;51.452;7.198;2023-07-02T04:20:47;17.50;;;8.05;;
76964;SDS011;65903;51.452;7.198;2023-07-02T04:21:48;20.92;;;8.05;;
76964;SDS011;65903;51.452;7.198;2023-07-02T04:22:49;17.42;;;8.13;;
76964;SDS011;65903;51.452;7.198;2023-07-02T04:23:50;18.13;;;9.15;;
76964;SDS011;65903;51.452;7.198;2023-07-02T04:24:51;19.15;;;8.95;;
76964;SDS011;65903;51.452;7.198;2023-07-02T04:25:51;18.88;;;8.45;;
76964;SDS011;65903;51.452;7.198;2023-07-02T04:26:52;16.67;;;8.32;;
76964;SDS011;65903;51.452;7.198;2023-07-02T04:27:54;17.90;;;8.95;;
76964;SDS011;65903;51.452;7.198;2023-07-02T04:28:57;17.95;;;8.48;;
76964;SDS011;65903;51.452;7.198;2023-07-02T04:29:57;19.13;;;8.98;;
76964;SDS011;65903;51.452;7.198;2023-07-02T04:30:58;19.05;;;8.40;;
76964;SDS011;65903;51.452;7.198;2023-07-02T04:31:59;17.10;;;8.68;;
76964;SDS011;65903;51.452;7.198;2023-07-02T04:33:00;20.15;;;8.70;;
76964;SDS011;65903;51.452;7.198;2023-07-02T04:34:01;17.65;;;8.85;;
76964;SDS011;65903;51.452;7.198;2023-07-02T04:35:02;19.67;;;9.18;;
76964;SDS011;65903;51.452;7.198;2023-07-02T04:36:03;20.48;;;8.77;;
76964;SDS011;65903;51.452;7.198;2023-07-02T04:37:04;19.52;;;8.88;;
76964;SDS011;65903;51.452;7.198;2023-07-02T04:38:05;23.52;;;8.23;;
76964;SDS011;65903;51.452;7.198;2023-07-02T04:39:08;18.10;;;9.30;;
76964;SDS011;65903;51.452;7.198;2023-07-02T04:40:09;21.63;;;9.20;;
76964;SDS011;65903;51.452;7.198;2023-07-02T04:41:10;20.33;;;10.15;;
76964;SDS011;65903;51.452;7.198;2023-07-02T04:42:11;18.27;;;8.02;;
76964;SDS011;65903;51.452;7.198;2023-07-02T04:43:13;21.25;;;9.70;;
76964;SDS011;65903;51.452;7.198;2023-07-02T04:44:16;21.27;;;8.98;;
76964;SDS011;65903;51.452;7.198;2023-07-02T04:45:17;18.13;;;8.63;;
76964;SDS011;65903;51.452;7.198;2023-07-02T04:46:18;17.83;;;8.18;;
76964;SDS011;65903;51.452;7.198;2023-07-02T04:47:19;20.35;;;9.15;;
76964;SDS011;65903;51.452;7.198;2023-07-02T04:48:19;20.67;;;8.85;;
76964;SDS011;65903;51.452;7.198;2023-07-02T04:49:20;19.75;;;9.60;;
76964;SDS011;65903;51.452;7.198;2023-07-02T04:50:21;17.48;;;9.23;;
76964;SDS011;65903;51.452;7.198;2023-07-02T04:51:22;18.15;;;9.45;;
76964;SDS011;65903;51.452;7.198;2023-07-02T04:52:22;16.90;;;8.85;;
76964;SDS011;65903;51.452;7.198;2023-07-02T04:53:23;17.58;;;8.95;;
76964;SDS011;65903;51.452;7.198;2023-07-02T04:54:23;17.83;;;9.07;;
76964;SDS011;65903;51.452;7.198;2023-07-02T04:55:24;19.00;;;8.23;;
76964;SDS011;65903;51.452;7.198;2023-07-02T04:56:25;19.42;;;9.23;;
76964;SDS011;65903;51.452;7.198;2023-07-02T04:57:26;19.90;;;9.00;;
76964;SDS011;65903;51.452;7.198;2023-07-02T04:58:28;18.17;;;9.30;;
76964;SDS011;65903;51.452;7.198;2023-07-02T04:59:29;20.85;;;9.07;;
76964;SDS011;65903;51.452;7.198;2023-07-02T05:00:30;20.50;;;9.60;;
76964;SDS011;65903;51.452;7.198;2023-07-02T05:01:31;20.30;;;9.70;;
76964;SDS011;65903;51.452;7.198;2023-07-02T05:02:32;18.17;;;9.38;;
76964;SDS011;65903;51.452;7.198;2023-07-02T05:03:33;21.92;;;10.25;;
76964;SDS011;65903;51.452;7.198;2023-07-02T05:04:33;19.65;;;8.85;;
76964;SDS011;65903;51.452;7.198;2023-07-02T05:05:34;21.73;;;9.65;;
76964;SDS011;65903;51.452;7.198;2023-07-02T05:06:41;19.73;;;9.43;;
76964;SDS011;65903;51.452;7.198;2023-07-02T05:07:42;18.02;;;8.63;;
76964;SDS011;65903;51.452;7.198;2023-07-02T05:08:43;23.67;;;10.93;;
76964;SDS011;65903;51.452;7.198;2023-07-02T05:09:43;20.85;;;9.40;;
76964;SDS011;65903;51.452;7.198;2023-07-02T05:10:44;22.35;;;9.90;;
76964;SDS011;65903;51.452;7.198;2023-07-02T05:11:45;18.20;;;10.45;;
76964;SDS011;65903;51.452;7.198;2023-07-02T05:12:46;19.00;;;8.63;;
76964;SDS011;65903;51.452;7.198;2023-07-02T05:13:47;23.40;;;10.15;;
76964;SDS011;65903;51.452;7.198;2023-07-02T05:14:47;20.98;;;9.75;;
76964;SDS011;65903;51.452;7.198;2023-07-02T05:15:48;22.33;;;10.25;;
76964;SDS011;65903;51.452;7.198;2023-07-02T05:16:49;16.65;;;9.38;;
76964;SDS011;65903;51.452;7.198;2023-07-02T05:17:50;18.65;;;10.43;;
76964;SDS011;65903;51.452;7.198;2023-07-02T05:18:50;19.65;;;9.88;;
76964;SDS011;65903;51.452;7.198;2023-07-02T05:19:52;20.85;;;10.07;;
76964;SDS011;65903;51.452;7.198;2023-07-02T05:20:53;22.90;;;10.77;;
76964;SDS011;65903;51.452;7.198;2023-07-02T05:21:54;21.38;;;9.90;;
76964;SDS011;65903;51.452;7.198;2023-07-02T05:22:55;20.20;;;10.32;;
76964;SDS011;65903;51.452;7.198;2023-07-02T05:23:55;21.08;;;10.05;;
76964;SDS011;65903;51.452;7.198;2023-07-02T05:24:56;19.75;;;9.65;;
76964;SDS011;65903;51.452;7.198;2023-07-02T05:25:56;22.55;;;10.50;;
76964;SDS011;65903;51.452;7.198;2023-07-02T05:26:57;18.88;;;10.15;;
76964;SDS011;65903;51.452;7.198;2023-07-02T05:27:57;23.00;;;9.60;;
76964;SDS011;65903;51.452;7.198;2023-07-02T05:28:58;22.33;;;10.57;;
76964;SDS011;65903;51.452;7.198;2023-07-02T05:29:59;20.10;;;9.68;;
76964;SDS011;65903;51.452;7.198;2023-07-02T05:30:59;21.17;;;10.35;;
76964;SDS011;65903;51.452;7.198;2023-07-02T05:32:00;21.70;;;10.18;;
76964;SDS011;65903;51.452;7.198;2023-07-02T05:33:00;21.05;;;10.00;;
76964;SDS011;65903;51.452;7.198;2023-07-02T05:34:01;21.85;;;10.40;;
76964;SDS011;65903;51.452;7.198;2023-07-02T05:35:02;23.40;;;10.02;;
76964;SDS011;65903;51.452;7.198;2023-07-02T05:36:03;20.33;;;10.07;;
76964;SDS011;65903;51.452;7.198;2023-07-02T05:37:05;24.13;;;10.60;;
76964;SDS011;65903;51.452;7.198;2023-07-02T05:38:06;21.15;;;10.52;;
76964;SDS011;65903;51.452;7.198;2023-07-02T05:39:06;20.83;;;10.68;;
76964;SDS011;65903;51.452;7.198;2023-07-02T05:40:07;21.20;;;10.10;;
76964;SDS011;65903;51.452;7.198;2023-07-02T05:41:08;23.90;;;10.45;;
76964;SDS011;65903;51.452;7.198;2023-07-02T05:42:09;25.23;;;10.50;;
76964;SDS011;65903;51.452;7.198;2023-07-02T05:43:10;20.67;;;10.38;;
76964;SDS011;65903;51.452;7.198;2023-07-02T05:44:11;21.20;;;11.32;;
76964;SDS011;65903;51.452;7.198;2023-07-02T05:45:12;22.17;;;11.38;;
76964;SDS011;65903;51.452;7.198;2023-07-02T05:46:13;21.80;;;10.85;;
76964;SDS011;65903;51.452;7.198;2023-07-02T05:47:14;22.63;;;10.98;;
76964;SDS011;65903;51.452;7.198;2023-07-02T05:48:15;24.33;;;10.55;;
76964;SDS011;65903;51.452;7.198;2023-07-02T05:49:16;24.08;;;11.27;;
76964;SDS011;65903;51.452;7.198;2023-07-02T05:50:17;27.23;;;11.20;;
76964;SDS011;65903;51.452;7.198;2023-07-02T05:51:21;21.65;;;11.13;;
76964;SDS011;65903;51.452;7.198;2023-07-02T05:52:22;21.63;;;10.65;;
76964;SDS011;65903;51.452;7.198;2023-07-02T05:53:23;18.73;;;10.30;;
76964;SDS011;65903;51.452;7.198;2023-07-02T05:54:24;22.65;;;11.85;;
76964;SDS011;65903;51.452;7.198;2023-07-02T05:55:25;25.13;;;10.77;;
76964;SDS011;65903;51.452;7.198;2023-07-02T05:56:26;24.05;;;11.73;;
76964;SDS011;65903;51.452;7.198;2023-07-02T05:57:26;26.42;;;10.77;;
76964;SDS011;65903;51.452;7.198;2023-07-02T05:58:27;21.98;;;10.95;;
76964;SDS011;65903;51.452;7.198;2023-07-02T05:59:27;21.77;;;10.82;;
76964;SDS011;65903;51.452;7.198;2023-07-02T06:00:28;21.90;;;12.27;;
76964;SDS011;65903;51.452;7.198;2023-07-02T06:01:29;22.88;;;10.45;;
76964;SDS011;65903;51.452;7.198;2023-07-02T06:02:30;24.80;;;10.65;;
76964;SDS011;65903;51.452;7.198;2023-07-02T06:03:32;20.63;;;10.73;;
76964;SDS011;65903;51.452;7.198;2023-07-02T06:04:33;21.17;;;10.65;;